createdAt,value
2018-12-19T00:02:17.483Z,96766.18
2018-12-19T00:04:45.072Z,96768.69
2018-12-19T00:07:12.645Z,96771.45
2018-12-19T00:09:40.233Z,96771.04
2018-12-19T00:12:07.817Z,96765.95
2018-12-19T00:14:35.388Z,96770.60
2018-12-19T00:17:02.976Z,96764.69
2018-12-19T00:19:30.549Z,96763.78
2018-12-19T00:21:58.125Z,96761.10
2018-12-19T00:24:25.757Z,96755.33
2018-12-19T00:26:53.472Z,96757.86
2018-12-19T00:29:21.067Z,96759.25
2018-12-19T00:31:48.644Z,96750.98
2018-12-19T00:34:16.215Z,96752.78
2018-12-19T00:36:43.803Z,96755.36
2018-12-19T00:39:11.379Z,96755.20
2018-12-19T00:41:38.984Z,96742.95
2018-12-19T00:44:06.563Z,96747.70
2018-12-19T00:46:34.142Z,96746.86
2018-12-19T00:49:02.548Z,96752.52
2018-12-19T00:51:30.144Z,96752.44
2018-12-19T00:53:57.734Z,96755.88
2018-12-19T00:56:25.324Z,96754.31
2018-12-19T00:58:52.913Z,96744.51
2018-12-19T01:01:20.503Z,96743.19
2018-12-19T01:03:48.072Z,96740.94
2018-12-19T01:06:15.707Z,96734.35
2018-12-19T01:08:43.296Z,96734.13
2018-12-19T01:11:10.989Z,96727.52
2018-12-19T01:13:38.562Z,96732.39
2018-12-19T01:16:06.144Z,96735.38
2018-12-19T01:18:33.719Z,96740.20
2018-12-19T01:21:01.344Z,96750.20
2018-12-19T01:23:28.922Z,96751.30
2018-12-19T01:25:56.518Z,96757.42
2018-12-19T01:28:24.096Z,96763.57
2018-12-19T01:30:51.679Z,96766.69
2018-12-19T01:33:19.274Z,96758.34
2018-12-19T01:35:46.861Z,96752.09
2018-12-19T01:38:14.429Z,96762.61
2018-12-19T01:40:42.002Z,96757.53
2018-12-19T01:43:09.572Z,96756.22
2018-12-19T01:45:37.245Z,96748.22
2018-12-19T01:48:04.828Z,96754.13
2018-12-19T01:50:33.383Z,96752.95
2018-12-19T01:53:00.959Z,96750.95
2018-12-19T01:55:28.537Z,96746.58
2018-12-19T01:57:56.110Z,96749.50
2018-12-19T02:00:25.740Z,96749.62
2018-12-19T02:02:54.000Z,96744.48
2018-12-19T02:05:21.567Z,96745.00
2018-12-19T02:07:49.164Z,96750.85
2018-12-19T02:10:16.738Z,96746.19
2018-12-19T02:12:45.175Z,96745.91
2018-12-19T02:15:12.745Z,96746.58
2018-12-19T02:17:40.322Z,96735.68
2018-12-19T02:20:07.918Z,96736.50
2018-12-19T02:22:35.558Z,96729.73
2018-12-19T02:25:03.681Z,96729.61
2018-12-19T02:27:31.240Z,96717.72
2018-12-19T02:29:58.907Z,96713.13
2018-12-19T02:32:26.530Z,96710.16
2018-12-19T02:34:54.153Z,96704.48
2018-12-19T02:37:21.717Z,96699.52
2018-12-19T02:39:49.292Z,96689.92
2018-12-19T02:42:16.884Z,96682.64
2018-12-19T02:44:44.478Z,96686.20
2018-12-19T02:47:12.864Z,96685.26
2018-12-19T02:49:40.455Z,96695.42
2018-12-19T02:52:08.047Z,96693.17
2018-12-19T02:54:35.655Z,96699.16
2018-12-19T02:57:03.249Z,96696.08
2018-12-19T02:59:30.883Z,96705.67
2018-12-19T03:01:58.488Z,96698.09
2018-12-19T03:04:26.180Z,96700.42
2018-12-19T03:06:53.781Z,96728.17
2018-12-19T03:09:21.711Z,96709.97
2018-12-19T03:11:49.337Z,96699.74
2018-12-19T03:14:17.051Z,96699.72
2018-12-19T03:16:45.025Z,96708.13
2018-12-19T03:19:12.635Z,96708.45
2018-12-19T03:21:40.239Z,96700.55
2018-12-19T03:24:07.844Z,96702.53
2018-12-19T03:26:35.442Z,96692.43
2018-12-19T03:29:03.034Z,96699.98
2018-12-19T03:31:30.642Z,96689.13
2018-12-19T03:33:58.306Z,96706.86
2018-12-19T03:36:25.997Z,96708.05
2018-12-19T03:38:53.659Z,96700.28
2018-12-19T03:41:21.350Z,96706.61
2018-12-19T03:43:48.940Z,96705.23
2018-12-19T03:46:16.534Z,96692.50
2018-12-19T03:48:49.819Z,96693.91
2018-12-19T03:51:17.412Z,96681.70
2018-12-19T03:53:45.046Z,96678.43
2018-12-19T03:56:12.717Z,96687.45
2018-12-19T03:58:41.043Z,96697.70
2018-12-19T04:01:09.363Z,96699.19
2018-12-19T04:03:37.681Z,96693.23
2018-12-19T04:06:05.296Z,96693.34
2018-12-19T04:08:32.895Z,96699.64
2018-12-19T04:11:00.517Z,96707.36
2018-12-19T04:13:28.120Z,96703.70
2018-12-19T04:15:55.744Z,96696.37
2018-12-19T04:18:23.344Z,96705.42
2018-12-19T04:20:50.993Z,96703.88
2018-12-19T04:23:18.625Z,96703.50
2018-12-19T04:25:46.282Z,96708.63
2018-12-19T04:28:13.892Z,96717.14
2018-12-19T04:30:41.503Z,96722.70
2018-12-19T04:33:09.103Z,96722.22
2018-12-19T04:35:37.037Z,96716.16
2018-12-19T04:38:04.643Z,96705.63
2018-12-19T04:40:32.249Z,96716.58
2018-12-19T04:42:59.927Z,96711.92
2018-12-19T04:45:27.530Z,96714.51
2018-12-19T04:47:55.129Z,96715.90
2018-12-19T04:50:22.732Z,96715.01
2018-12-19T04:52:50.467Z,96715.60
2018-12-19T04:55:19.043Z,96709.92
2018-12-19T04:57:46.634Z,96704.86
2018-12-19T05:00:14.237Z,96710.13
2018-12-19T05:02:41.835Z,96712.30
2018-12-19T05:05:09.439Z,96723.30
2018-12-19T05:07:37.461Z,96728.22
2018-12-19T05:10:12.117Z,96725.09
2018-12-19T05:12:35.137Z,96736.09
2018-12-19T05:15:02.760Z,96731.85
2018-12-19T05:17:31.092Z,96735.45
2018-12-19T05:19:59.044Z,96730.66
2018-12-19T05:22:26.652Z,96727.81
2018-12-19T05:24:54.260Z,96724.47
2018-12-19T05:27:21.860Z,96726.94
2018-12-19T05:29:49.471Z,96723.44
2018-12-19T05:32:22.747Z,96728.28
2018-12-19T05:34:50.350Z,96726.33
2018-12-19T05:37:17.956Z,96724.59
2018-12-19T05:39:45.670Z,96729.56
2018-12-19T05:42:13.268Z,96719.35
2018-12-19T05:44:41.008Z,96708.64
2018-12-19T05:47:09.448Z,96714.11
2018-12-19T05:49:37.271Z,96723.76
2018-12-19T05:52:04.867Z,96725.67
2018-12-19T05:54:33.229Z,96723.45
2018-12-19T05:57:00.904Z,96721.08
2018-12-19T05:59:28.515Z,96723.45
2018-12-19T06:01:57.212Z,96718.67
2018-12-19T06:04:24.830Z,96724.55
2018-12-19T06:06:52.458Z,96721.74
2018-12-19T06:09:20.239Z,96719.89
2018-12-19T06:11:47.869Z,96719.98
2018-12-19T06:14:15.579Z,96718.80
2018-12-19T06:16:43.190Z,96722.91
2018-12-19T06:19:11.369Z,96731.69
2018-12-19T06:21:38.976Z,96736.55
2018-12-19T06:24:06.753Z,96737.78
2018-12-19T06:26:34.356Z,96730.71
2018-12-19T06:29:01.975Z,96738.22
2018-12-19T06:31:29.592Z,96737.98
2018-12-19T06:33:57.533Z,96743.75
2018-12-19T06:36:25.138Z,96723.23
2018-12-19T06:38:52.770Z,96732.89
2018-12-19T06:41:20.368Z,96734.00
2018-12-19T06:43:48.229Z,96736.55
2018-12-19T06:46:15.827Z,96739.39
2018-12-19T06:48:43.424Z,96733.16
2018-12-19T06:51:11.113Z,96732.24
2018-12-19T06:53:38.722Z,96736.34
2018-12-19T06:56:06.325Z,96747.55
2018-12-19T06:58:34.009Z,96743.67
2018-12-19T07:01:01.614Z,96754.57
2018-12-19T07:03:29.207Z,96749.89
2018-12-19T07:05:56.808Z,96754.56
2018-12-19T07:08:24.417Z,96749.40
2018-12-19T07:10:52.017Z,96746.39
2018-12-19T07:13:19.657Z,96750.38
2018-12-19T07:15:47.260Z,96756.52
2018-12-19T07:18:14.863Z,96759.95
2018-12-19T07:20:42.550Z,96755.88
2018-12-19T07:23:10.211Z,96763.79
2018-12-19T07:25:37.812Z,96764.99
2018-12-19T07:28:05.399Z,96775.52
2018-12-19T07:30:33.173Z,96780.66
2018-12-19T07:33:00.771Z,96770.92
2018-12-19T07:35:28.374Z,96772.01
2018-12-19T07:37:55.969Z,96779.06
2018-12-19T07:40:23.583Z,96781.38
2018-12-19T07:42:51.245Z,96771.81
2018-12-19T07:45:18.845Z,96767.83
2018-12-19T07:47:46.451Z,96775.11
2018-12-19T07:50:14.171Z,96781.22
2018-12-19T07:52:41.784Z,96781.44
2018-12-19T07:55:09.387Z,96782.95
2018-12-19T07:57:36.992Z,96785.35
2018-12-19T08:00:05.362Z,96791.36
2018-12-19T08:02:33.814Z,96802.97
2018-12-19T08:05:01.520Z,96806.58
2018-12-19T08:07:29.437Z,96801.89
2018-12-19T08:09:57.106Z,96806.36
2018-12-19T08:12:24.711Z,96799.82
2018-12-19T08:14:54.377Z,96802.32
2018-12-19T08:17:21.965Z,96804.08
2018-12-19T08:19:49.563Z,96806.57
2018-12-19T08:22:17.274Z,96804.49
2018-12-19T08:24:44.899Z,96802.16
2018-12-19T08:27:12.582Z,96803.22
2018-12-19T08:29:41.015Z,96804.08
2018-12-19T08:32:08.622Z,96800.78
2018-12-19T08:34:36.272Z,96800.91
2018-12-19T08:37:03.945Z,96799.77
2018-12-19T08:39:32.496Z,96805.66
2018-12-19T08:42:00.102Z,96801.88
2018-12-19T08:44:27.708Z,96802.75
2018-12-19T08:46:55.296Z,96806.84
2018-12-19T08:49:22.956Z,96805.88
2018-12-19T08:51:50.640Z,96804.02
2018-12-19T08:54:18.414Z,96800.55
2018-12-19T08:56:46.392Z,96809.05
2018-12-19T08:59:13.989Z,96809.58
2018-12-19T09:01:41.596Z,96811.16
2018-12-19T09:04:09.251Z,96806.42
2018-12-19T09:06:36.891Z,96807.06
2018-12-19T09:09:06.409Z,96814.86
2018-12-19T09:11:34.026Z,96812.09
2018-12-19T09:14:01.642Z,96814.65
2018-12-19T09:16:29.240Z,96811.20
2018-12-19T09:18:56.833Z,96808.69
2018-12-19T09:21:24.439Z,96810.58
2018-12-19T09:23:52.025Z,96809.95
2018-12-19T09:26:19.636Z,96807.91
2018-12-19T09:28:47.233Z,96805.02
2018-12-19T09:31:14.945Z,96805.98
2018-12-19T09:33:42.547Z,96807.00
2018-12-19T09:36:10.145Z,96809.62
2018-12-19T09:38:37.742Z,96804.02
2018-12-19T09:41:12.107Z,96803.55
2018-12-19T09:43:35.027Z,96804.73
2018-12-19T09:46:02.622Z,96799.78
2018-12-19T09:48:30.231Z,96801.33
2018-12-19T09:50:57.824Z,96788.81
2018-12-19T09:53:25.876Z,96789.52
2018-12-19T09:55:53.484Z,96788.64
2018-12-19T09:58:21.967Z,96785.63
2018-12-19T10:00:49.581Z,96787.61
2018-12-19T10:03:17.184Z,96783.98
2018-12-19T10:05:44.852Z,96783.70
2018-12-19T10:08:12.461Z,96784.72
2018-12-19T10:10:40.076Z,96787.08
2018-12-19T10:13:07.701Z,96787.79
2018-12-19T10:15:35.369Z,96784.13
2018-12-19T10:18:03.077Z,96779.67
2018-12-19T10:20:30.695Z,96791.45
2018-12-19T10:22:58.498Z,96782.13
2018-12-19T10:25:26.686Z,96780.62
2018-12-19T10:27:54.289Z,96776.59
2018-12-19T10:30:21.892Z,96774.12
2018-12-19T10:32:51.528Z,96768.08
2018-12-19T10:35:19.160Z,96770.13
2018-12-19T10:37:46.759Z,96772.50
2018-12-19T10:40:14.794Z,96766.14
2018-12-19T10:42:42.407Z,96759.73
2018-12-19T10:45:10.228Z,96757.59
2018-12-19T10:47:37.839Z,96759.45
2018-12-19T10:50:07.103Z,96759.94
2018-12-19T10:52:34.752Z,96754.25
2018-12-19T10:55:02.444Z,96750.88
2018-12-19T10:57:30.120Z,96746.88
2018-12-19T10:59:57.808Z,96743.22
2018-12-19T11:02:25.412Z,96743.38
2018-12-19T11:04:54.304Z,96743.56
2018-12-19T11:07:22.135Z,96745.61
2018-12-19T11:09:49.811Z,96738.56
2018-12-19T11:12:17.421Z,96733.22
2018-12-19T11:14:45.048Z,96722.63
2018-12-19T11:17:12.639Z,96725.44
2018-12-19T11:19:40.229Z,96716.25
2018-12-19T11:22:09.886Z,96704.83
2018-12-19T11:24:37.761Z,96693.80
2018-12-19T11:27:05.366Z,96688.15
2018-12-19T11:29:32.972Z,96683.13
2018-12-19T11:32:00.567Z,96668.93
2018-12-19T11:34:28.161Z,96674.12
2018-12-19T11:36:55.757Z,96673.78
2018-12-19T11:39:23.383Z,96675.72
2018-12-19T11:41:50.983Z,96679.55
2018-12-19T11:44:18.578Z,96678.30
2018-12-19T11:46:46.193Z,96687.91
2018-12-19T11:49:13.797Z,96682.27
2018-12-19T11:51:41.388Z,96689.81
2018-12-19T11:54:09.243Z,96688.06
2018-12-19T11:56:36.836Z,96696.82
2018-12-19T11:59:04.456Z,96694.94
2018-12-19T12:01:32.063Z,96697.49
2018-12-19T12:03:59.684Z,96697.59
2018-12-19T12:06:27.284Z,96692.48
2018-12-19T12:08:54.887Z,96689.58
2018-12-19T12:11:22.484Z,96682.14
2018-12-19T12:13:50.115Z,96684.02
2018-12-19T12:16:17.802Z,96686.63
2018-12-19T12:18:45.470Z,96675.34
2018-12-19T12:21:13.132Z,96679.80
2018-12-19T12:23:47.155Z,96679.91
2018-12-19T12:26:10.404Z,96674.34
2018-12-19T12:28:38.008Z,96669.67
2018-12-19T12:31:06.381Z,96669.19
2018-12-19T12:33:33.980Z,96666.52
2018-12-19T12:36:01.763Z,96667.91
2018-12-19T12:38:34.066Z,96659.98
2018-12-19T12:40:59.009Z,96646.45
2018-12-19T12:43:27.602Z,96648.99
2018-12-19T12:45:55.215Z,96662.80
2018-12-19T12:48:22.819Z,96660.20
2018-12-19T12:50:50.412Z,96659.80
2018-12-19T12:53:18.020Z,96658.79
2018-12-19T12:55:45.619Z,96659.03
2018-12-19T12:58:14.049Z,96658.25
2018-12-19T13:00:41.694Z,96660.85
2018-12-19T13:03:09.284Z,96651.68
2018-12-19T13:05:36.885Z,96648.91
2018-12-19T13:08:04.529Z,96646.41
2018-12-19T13:10:36.295Z,96652.73
2018-12-19T13:13:01.896Z,96650.16
2018-12-19T13:15:35.194Z,96655.75
2018-12-19T13:18:02.808Z,96653.14
2018-12-19T13:20:30.419Z,96644.76
2018-12-19T13:22:58.106Z,96649.18
2018-12-19T13:25:25.781Z,96644.12
2018-12-19T13:27:53.675Z,96638.22
2018-12-19T13:30:21.333Z,96630.09
2018-12-19T13:32:48.951Z,96635.56
2018-12-19T13:35:16.681Z,96632.20
2018-12-19T13:37:44.288Z,96633.25
2018-12-19T13:40:11.930Z,96628.97
2018-12-19T13:42:39.585Z,96632.75
2018-12-19T13:45:07.499Z,96619.55
2018-12-19T13:47:35.101Z,96617.47
2018-12-19T13:50:03.077Z,96622.33
2018-12-19T13:52:30.668Z,96613.47
2018-12-19T13:54:58.267Z,96608.82
2018-12-19T13:57:25.867Z,96601.69
2018-12-19T13:59:54.371Z,96603.13
2018-12-19T14:02:22.091Z,96593.08
2018-12-19T14:04:49.732Z,96598.70
2018-12-19T14:07:17.515Z,96587.70
2018-12-19T14:09:45.135Z,96590.77
2018-12-19T14:12:12.731Z,96587.63
2018-12-19T14:14:40.361Z,96585.50
2018-12-19T14:17:07.995Z,96579.06
2018-12-19T14:19:36.731Z,96570.67
2018-12-19T14:22:04.826Z,96570.78
2018-12-19T14:24:33.368Z,96569.84
2018-12-19T14:27:01.559Z,96568.22
2018-12-19T14:29:29.191Z,96563.87
2018-12-19T14:31:56.898Z,96563.50
2018-12-19T14:34:25.079Z,96560.63
2018-12-19T14:36:52.684Z,96559.95
2018-12-19T14:39:20.281Z,96547.66
2018-12-19T14:41:48.831Z,96543.73
2018-12-19T14:44:16.439Z,96539.58
2018-12-19T14:46:44.088Z,96534.36
2018-12-19T14:49:14.122Z,96536.97
2018-12-19T14:51:41.372Z,96537.52
2018-12-19T14:54:09.075Z,96532.45
2018-12-19T14:56:36.696Z,96528.68
2018-12-19T14:59:04.301Z,96531.63
2018-12-19T15:01:32.048Z,96532.22
2018-12-19T15:04:00.268Z,96536.44
2018-12-19T15:06:28.225Z,96538.61
2018-12-19T15:08:55.844Z,96538.15
2018-12-19T15:11:23.479Z,96551.36
2018-12-19T15:13:51.071Z,96549.60
2018-12-19T15:16:20.709Z,96550.80
2018-12-19T15:18:48.358Z,96550.77
2018-12-19T15:21:15.969Z,96551.94
2018-12-19T15:23:43.570Z,96544.88
2018-12-19T15:26:11.172Z,96551.49
2018-12-19T15:28:38.776Z,96551.14
2018-12-19T15:31:06.405Z,96548.95
2018-12-19T15:33:34.095Z,96548.27
2018-12-19T15:36:02.035Z,96552.17
2018-12-19T15:38:29.673Z,96551.84
2018-12-19T15:40:57.273Z,96550.46
2018-12-19T15:43:24.871Z,96548.44
2018-12-19T15:45:52.464Z,96545.08
2018-12-19T15:48:20.090Z,96546.87
2018-12-19T15:50:47.687Z,96542.53
2018-12-19T15:53:15.361Z,96544.91
2018-12-19T15:55:42.970Z,96547.81
2018-12-19T15:58:10.678Z,96547.14
2018-12-19T16:00:38.279Z,96543.45
2018-12-19T16:03:05.877Z,96538.97
2018-12-19T16:05:33.566Z,96535.08
2018-12-19T16:08:01.205Z,96537.08
2018-12-19T16:10:28.809Z,96541.34
2018-12-19T16:12:56.429Z,96542.94
2018-12-19T16:15:24.041Z,96545.19
2018-12-19T16:17:51.650Z,96548.22
2018-12-19T16:20:19.393Z,96543.84
2018-12-19T16:22:47.007Z,96547.75
2018-12-19T16:25:15.220Z,96539.70
2018-12-19T16:27:42.931Z,96544.46
2018-12-19T16:30:10.583Z,96539.03
2018-12-19T16:32:38.244Z,96539.98
2018-12-19T16:35:05.863Z,96538.38
2018-12-19T16:37:33.676Z,96536.12
2018-12-19T16:40:01.330Z,96539.70
2018-12-19T16:42:29.001Z,96539.90
2018-12-19T16:44:57.635Z,96543.34
2018-12-19T16:47:25.235Z,96543.13
2018-12-19T16:49:52.837Z,96551.13
2018-12-19T16:52:20.498Z,96549.36
2018-12-19T16:54:48.097Z,96559.18
2018-12-19T16:57:15.690Z,96551.67
2018-12-19T16:59:43.294Z,96557.77
2018-12-19T17:02:10.883Z,96560.38
2018-12-19T17:04:38.806Z,96559.50
2018-12-19T17:07:06.411Z,96562.55
2018-12-19T17:09:34.016Z,96566.86
2018-12-19T17:12:01.631Z,96562.20
2018-12-19T17:14:29.246Z,96569.89
2018-12-19T17:16:57.528Z,96568.42
2018-12-19T17:19:25.125Z,96563.73
2018-12-19T17:21:52.736Z,96569.24
2018-12-19T17:24:22.376Z,96568.21
2018-12-19T17:26:50.675Z,96564.69
2018-12-19T17:29:18.584Z,96566.67
2018-12-19T17:31:46.499Z,96565.20
2018-12-19T17:34:14.210Z,96558.91
2018-12-19T17:36:41.929Z,96567.92
2018-12-19T17:39:09.545Z,96559.41
2018-12-19T17:41:37.149Z,96564.30
2018-12-19T17:44:05.357Z,96559.43
2018-12-19T17:46:33.063Z,96562.33
2018-12-19T17:49:00.667Z,96574.14
2018-12-19T17:51:28.344Z,96574.39
2018-12-19T17:53:55.964Z,96573.61
2018-12-19T17:56:25.839Z,96566.69
2018-12-19T17:58:53.577Z,96571.05
2018-12-19T18:01:21.223Z,96572.71
2018-12-19T18:03:49.824Z,96573.47
2018-12-19T18:06:17.427Z,96572.20
2018-12-19T18:08:45.046Z,96576.75
2018-12-19T18:11:12.652Z,96576.02
2018-12-19T18:13:41.098Z,96578.16
2018-12-19T18:16:08.947Z,96582.11
2018-12-19T18:18:36.548Z,96583.03
2018-12-19T18:21:04.498Z,96583.44
2018-12-19T18:23:32.098Z,96585.19
2018-12-19T18:25:59.814Z,96588.69
2018-12-19T18:28:27.427Z,96587.92
2018-12-19T18:30:55.023Z,96591.17
2018-12-19T18:33:22.783Z,96592.96
2018-12-19T18:35:50.447Z,96595.72
2018-12-19T18:38:18.107Z,96600.00
2018-12-19T18:40:45.715Z,96601.55
2018-12-19T18:43:13.428Z,96602.06
2018-12-19T18:45:41.056Z,96602.55
2018-12-19T18:48:08.681Z,96602.48
2018-12-19T18:50:36.538Z,96601.67
2018-12-19T18:53:04.152Z,96601.85
2018-12-19T18:55:32.592Z,96600.78
2018-12-19T18:58:00.219Z,96606.61
2018-12-19T19:00:29.736Z,96598.24
2018-12-19T19:02:57.350Z,96600.24
2018-12-19T19:05:25.053Z,96594.97
2018-12-19T19:07:52.683Z,96600.39
2018-12-19T19:10:20.368Z,96603.42
2018-12-19T19:12:47.979Z,96596.58
2018-12-19T19:15:15.689Z,96597.78
2018-12-19T19:17:43.316Z,96599.30
2018-12-19T19:20:11.048Z,96596.17
2018-12-19T19:22:38.784Z,96594.09
2018-12-19T19:25:06.494Z,96602.61
2018-12-19T19:27:34.415Z,96608.52
2018-12-19T19:30:02.175Z,96606.31
2018-12-19T19:32:30.042Z,96603.88
2018-12-19T19:34:57.658Z,96604.64
2018-12-19T19:37:25.269Z,96599.73
2018-12-19T19:39:52.892Z,96606.85
2018-12-19T19:42:20.513Z,96600.06
2018-12-19T19:44:48.128Z,96601.06
2018-12-19T19:47:15.859Z,96596.23
2018-12-19T19:49:43.482Z,96586.26
2018-12-19T19:52:11.440Z,96585.98
2018-12-19T19:54:39.310Z,96580.16
2018-12-19T19:57:07.197Z,96578.89
2018-12-19T19:59:35.442Z,96575.34
2018-12-19T20:02:03.054Z,96574.86
2018-12-19T20:04:30.763Z,96572.98
2018-12-19T20:07:00.836Z,96570.89
2018-12-19T20:09:29.053Z,96578.26
2018-12-19T20:11:56.670Z,96574.52
2018-12-19T20:14:24.277Z,96578.67
2018-12-19T20:16:57.537Z,96579.83
2018-12-19T20:19:25.202Z,96578.83
2018-12-19T20:21:52.903Z,96574.52
2018-12-19T20:24:20.520Z,96574.31
2018-12-19T20:26:48.400Z,96571.80
2018-12-19T20:29:16.699Z,96572.58
2018-12-19T20:31:44.547Z,96572.80
2018-12-19T20:34:12.214Z,96573.45
2018-12-19T20:36:39.993Z,96573.64
2018-12-19T20:39:08.349Z,96575.45
2018-12-19T20:41:35.982Z,96580.50
2018-12-19T20:44:03.650Z,96576.89
2018-12-19T20:46:31.247Z,96578.22
2018-12-19T20:48:59.014Z,96572.80
2018-12-19T20:51:26.668Z,96575.34
2018-12-19T20:53:54.373Z,96579.95
2018-12-19T20:56:22.123Z,96580.22
2018-12-19T20:58:49.965Z,96583.23
2018-12-19T21:01:17.588Z,96585.05
2018-12-19T21:03:45.343Z,96583.23
2018-12-19T21:06:14.129Z,96579.63
2018-12-19T21:08:41.840Z,96581.68
2018-12-19T21:11:09.502Z,96580.63
2018-12-19T21:13:37.274Z,96578.26
2018-12-19T21:16:05.116Z,96580.23
2018-12-19T21:18:38.333Z,96579.41
2018-12-19T21:21:05.972Z,96574.50
2018-12-19T21:23:33.896Z,96577.77
2018-12-19T21:26:02.621Z,96565.25
2018-12-19T21:28:31.212Z,96568.73
2018-12-19T21:30:59.399Z,96572.83
2018-12-19T21:33:27.015Z,96572.77
2018-12-19T21:35:54.674Z,96570.22
2018-12-19T21:38:22.324Z,96575.83
2018-12-19T21:40:50.251Z,96570.80
2018-12-19T21:43:17.856Z,96566.01
2018-12-19T21:45:51.584Z,96569.80
2018-12-19T21:48:15.376Z,96578.44
2018-12-19T21:50:43.378Z,96573.38
2018-12-19T21:53:11.355Z,96583.14
2018-12-19T21:55:38.954Z,96576.16
2018-12-19T21:58:06.670Z,96576.89
2018-12-19T22:00:35.698Z,96571.11
2018-12-19T22:03:05.906Z,96572.05
2018-12-19T22:05:33.595Z,96573.50
2018-12-19T22:08:01.889Z,96573.59
2018-12-19T22:10:29.573Z,96575.86
2018-12-19T22:12:57.317Z,96565.94
2018-12-19T22:15:24.931Z,96563.61
2018-12-19T22:17:54.764Z,96558.58
2018-12-19T22:20:22.574Z,96562.13
2018-12-19T22:22:50.939Z,96564.80
2018-12-19T22:25:18.904Z,96562.37
2018-12-19T22:27:46.537Z,96559.97
2018-12-19T22:30:14.333Z,96563.95
2018-12-19T22:32:42.219Z,96562.40
2018-12-19T22:35:10.993Z,96559.77
2018-12-19T22:37:38.679Z,96554.61
2018-12-19T22:40:08.018Z,96558.55
2018-12-19T22:42:35.742Z,96555.73
2018-12-19T22:45:04.325Z,96556.94
2018-12-19T22:47:31.929Z,96552.39
2018-12-19T22:49:59.723Z,96548.96
2018-12-19T22:52:27.358Z,96542.59
2018-12-19T22:54:54.963Z,96524.53
2018-12-19T22:57:22.744Z,96520.63
2018-12-19T22:59:50.439Z,96524.30
2018-12-19T23:05:30.739Z,96523.89
2018-12-19T23:07:58.347Z,96526.11
2018-12-19T23:10:26.020Z,96541.12
2018-12-19T23:12:53.829Z,96540.94
2018-12-19T23:15:21.778Z,96536.84
2018-12-19T23:17:49.672Z,96545.21
2018-12-19T23:20:17.997Z,96542.66
2018-12-19T23:22:45.903Z,96548.39
2018-12-19T23:25:13.734Z,96536.52
2018-12-19T23:27:41.432Z,96534.64
2018-12-19T23:30:09.540Z,96535.58
2018-12-19T23:32:37.183Z,96538.33
2018-12-19T23:35:05.255Z,96536.51
2018-12-19T23:37:32.936Z,96535.23
2018-12-19T23:40:00.677Z,96535.64
2018-12-19T23:42:28.518Z,96534.58
2018-12-19T23:44:56.450Z,96542.34
2018-12-19T23:47:25.296Z,96539.52
2018-12-19T23:49:53.279Z,96540.00
2018-12-19T23:52:20.875Z,96535.64
2018-12-19T23:54:48.742Z,96540.79
2018-12-19T23:57:16.531Z,96541.09
2018-12-19T23:59:44.778Z,96542.61
